Time;durP1;ratioP1;P1;durP2;ratioP2;P2;SDS_P1;SDS_P2;PMS_P1;PMS_P2;Temp;Humidity;BMP_temperature;BMP_pressure;BME280_temperature;BME280_humidity;BME280_pressure;Samples;Min_cycle;Max_cycle;Signal;HPM_P1;HPM_P2
2021/06/05 00:03:07;;;;;;;5.57;3.13;;;;;;;;;;5129867;27;20111;-69
2021/06/05 00:05:53;;;;;;;6.00;3.65;;;;;;;;;;5088854;28;20397;-69
2021/06/05 00:08:20;;;;;;;8.32;3.55;;;;;;;;;;5089729;28;20028;-68
2021/06/05 00:10:48;;;;;;;5.50;2.95;;;;;;;;;;5090069;28;20020;-69
2021/06/05 00:13:55;;;;;;;5.57;2.83;;;;;;;;;;5126357;27;20384;-68
2021/06/05 00:16:23;;;;;;;8.75;3.38;;;;;;;;;;5109220;28;20032;-67
2021/06/05 00:20:28;;;;;;;5.00;2.70;;;;;;;;;;5126301;27;20379;-68
2021/06/05 00:22:55;;;;;;;5.05;3.30;;;;;;;;;;5110047;28;20028;-68
2021/06/05 00:25:22;;;;;;;5.10;3.38;;;;;;;;;;5109140;28;20473;-68
2021/06/05 00:27:48;;;;;;;7.00;3.10;;;;;;;;;;5110485;28;20028;-71
2021/06/05 00:33:14;;;;;;;5.07;2.80;;;;;;;;;;5126935;27;20377;-70
2021/06/05 00:35:41;;;;;;;5.43;3.28;;;;;;;;;;5108845;28;20028;-68
2021/06/05 00:38:58;;;;;;;7.88;3.28;;;;;;;;;;5129758;27;20598;-69
2021/06/05 00:41:25;;;;;;;9.02;3.83;;;;;;;;;;5131063;28;20458;-69
2021/06/05 00:43:53;;;;;;;6.90;3.55;;;;;;;;;;5130590;28;20092;-69
2021/06/05 00:47:26;;;;;;;7.53;3.85;;;;;;;;;;5126274;27;20381;-68
2021/06/05 00:49:53;;;;;;;7.88;4.30;;;;;;;;;;5110170;28;20024;-71
2021/06/05 00:53:30;;;;;;;10.93;4.65;;;;;;;;;;5126379;27;20431;-68
2021/06/05 00:55:58;;;;;;;9.15;4.47;;;;;;;;;;5109131;28;20086;-68
2021/06/05 00:58:26;;;;;;;9.88;4.75;;;;;;;;;;5110819;28;20050;-68
2021/06/05 01:01:05;;;;;;;9.55;4.57;;;;;;;;;;5110334;28;20032;-68
2021/06/05 01:04:53;;;;;;;8.73;5.28;;;;;;;;;;5126024;27;20426;-68
2021/06/05 01:07:23;;;;;;;8.65;3.90;;;;;;;;;;5110452;28;20036;-68
2021/06/05 01:10:00;;;;;;;7.13;4.32;;;;;;;;;;5110379;28;20500;-68
2021/06/05 01:15:41;;;;;;;7.15;3.80;;;;;;;;;;5126273;27;20377;-68
2021/06/05 01:18:07;;;;;;;8.52;3.75;;;;;;;;;;5108831;28;20113;-68
2021/06/05 01:26:20;;;;;;;5.25;3.10;;;;;;;;;;5125969;27;20737;-68
2021/06/05 01:33:44;;;;;;;5.18;3.13;;;;;;;;;;5126396;27;20380;-68
2021/06/05 01:39:48;;;;;;;7.03;3.83;;;;;;;;;;5125816;27;20417;-68
2021/06/05 01:43:22;;;;;;;8.85;4.45;;;;;;;;;;5129738;27;20119;-68
2021/06/05 01:50:07;;;;;;;8.35;4.20;;;;;;;;;;5126560;27;20733;-68
2021/06/05 01:54:30;;;;;;;11.25;4.90;;;;;;;;;;5143110;27;20376;-68
2021/06/05 01:56:59;;;;;;;8.77;4.90;;;;;;;;;;5110454;28;20484;-68
2021/06/05 01:59:28;;;;;;;9.68;4.93;;;;;;;;;;5109905;28;20024;-68
2021/06/05 02:01:54;;;;;;;8.73;5.07;;;;;;;;;;5109002;28;20058;-71
2021/06/05 02:04:20;;;;;;;11.23;5.68;;;;;;;;;;5110324;28;20015;-68
2021/06/05 02:07:30;;;;;;;9.52;4.93;;;;;;;;;;5126044;27;20373;-68
2021/06/05 02:09:56;;;;;;;10.73;5.57;;;;;;;;;;5110681;28;20092;-68
2021/06/05 02:14:18;;;;;;;12.13;5.65;;;;;;;;;;5126111;27;20377;-68
2021/06/05 02:16:47;;;;;;;8.43;4.05;;;;;;;;;;5110501;28;20024;-68
2021/06/05 02:19:48;;;;;;;7.35;3.63;;;;;;;;;;5126251;27;20377;-68
2021/06/05 02:22:18;;;;;;;7.72;3.75;;;;;;;;;;5108739;28;20480;-70
2021/06/05 02:26:40;;;;;;;5.72;3.25;;;;;;;;;;5126383;27;20373;-68
2021/06/05 02:29:20;;;;;;;10.27;4.50;;;;;;;;;;5126016;27;20384;-68
2021/06/05 02:33:49;;;;;;;12.13;4.97;;;;;;;;;;5126530;27;20377;-69
2021/06/05 02:36:15;;;;;;;7.90;4.05;;;;;;;;;;5108862;28;20031;-68
2021/06/05 02:39:07;;;;;;;7.80;4.15;;;;;;;;;;5126416;27;20381;-68
2021/06/05 02:41:33;;;;;;;7.40;4.15;;;;;;;;;;5110031;28;20110;-68
2021/06/05 02:44:00;;;;;;;6.13;3.72;;;;;;;;;;5110467;28;20024;-68
2021/06/05 02:47:57;;;;;;;8.32;4.28;;;;;;;;;;5129797;27;20513;-68
2021/06/05 02:50:24;;;;;;;10.13;5.05;;;;;;;;;;5130733;28;20027;-68
2021/06/05 02:52:51;;;;;;;6.50;3.72;;;;;;;;;;5129781;28;20024;-68
2021/06/05 02:55:19;;;;;;;7.75;3.50;;;;;;;;;;5129542;28;20076;-68
2021/06/05 02:58:11;;;;;;;5.47;3.33;;;;;;;;;;5126286;27;20384;-69
2021/06/05 03:00:39;;;;;;;7.03;3.55;;;;;;;;;;5109103;28;20055;-69
2021/06/05 03:05:39;;;;;;;5.25;3.10;;;;;;;;;;5126326;27;20384;-68
2021/06/05 03:09:45;;;;;;;7.25;3.95;;;;;;;;;;5125989;27;20717;-69
2021/06/05 03:12:13;;;;;;;7.28;3.75;;;;;;;;;;5110590;28;20441;-68
2021/06/05 03:20:51;;;;;;;5.20;3.45;;;;;;;;;;5126289;27;20528;-68
2021/06/05 03:23:38;;;;;;;6.15;3.50;;;;;;;;;;5126357;27;20377;-68
2021/06/05 03:26:05;;;;;;;5.72;3.35;;;;;;;;;;5108993;28;20429;-68
2021/06/05 03:28:33;;;;;;;7.70;3.50;;;;;;;;;;5109096;28;20035;-68
2021/06/05 03:31:00;;;;;;;6.22;3.63;;;;;;;;;;5110155;28;20020;-68
2021/06/05 03:33:26;;;;;;;6.80;3.50;;;;;;;;;;5109146;28;20472;-69
2021/06/05 03:35:53;;;;;;;5.55;3.38;;;;;;;;;;5108994;28;20077;-69
2021/06/05 03:38:20;;;;;;;4.65;3.25;;;;;;;;;;5108589;28;20059;-69
2021/06/05 03:40:46;;;;;;;7.45;3.75;;;;;;;;;;5110228;28;20031;-69
2021/06/05 03:43:14;;;;;;;10.20;4.15;;;;;;;;;;5110063;28;20399;-69
2021/06/05 03:45:40;;;;;;;9.73;4.93;;;;;;;;;;5109674;28;20028;-69
2021/06/05 03:48:06;;;;;;;6.55;3.65;;;;;;;;;;5109940;28;20024;-69
2021/06/05 03:50:35;;;;;;;6.97;3.78;;;;;;;;;;5110122;28;20480;-69
2021/06/05 03:54:41;;;;;;;10.43;4.70;;;;;;;;;;5129827;27;20116;-68
2021/06/05 03:57:07;;;;;;;9.07;5.20;;;;;;;;;;5129683;28;20394;-69
2021/06/05 03:59:33;;;;;;;9.68;4.20;;;;;;;;;;5130502;28;20019;-69
2021/06/05 04:01:59;;;;;;;8.90;4.32;;;;;;;;;;5130970;28;20461;-69
2021/06/05 04:04:25;;;;;;;7.35;4.38;;;;;;;;;;5130838;28;20027;-69
2021/06/05 04:06:52;;;;;;;7.00;3.88;;;;;;;;;;5130452;28;20023;-69
2021/06/05 04:09:18;;;;;;;7.45;3.70;;;;;;;;;;5129449;28;20027;-69
2021/06/05 04:16:48;;;;;;;7.18;3.88;;;;;;;;;;5126318;27;20383;-70
2021/06/05 04:20:24;;;;;;;5.85;3.72;;;;;;;;;;5091989;28;20116;-69
2021/06/05 04:22:50;;;;;;;6.55;3.63;;;;;;;;;;5110471;28;20032;-68
2021/06/05 04:25:16;;;;;;;5.75;3.50;;;;;;;;;;5092171;28;20019;-68
2021/06/05 04:27:42;;;;;;;7.82;4.72;;;;;;;;;;5091759;28;20024;-69
2021/06/05 04:31:59;;;;;;;7.40;4.18;;;;;;;;;;5126503;27;20380;-71
2021/06/05 04:35:15;;;;;;;8.50;3.58;;;;;;;;;;5126116;27;20373;-69
2021/06/05 04:39:26;;;;;;;9.18;4.50;;;;;;;;;;5126199;27;20384;-69
2021/06/05 04:41:53;;;;;;;7.28;3.67;;;;;;;;;;5108755;28;20034;-69
2021/06/05 04:44:19;;;;;;;7.70;3.70;;;;;;;;;;5110444;28;20088;-68
2021/06/05 04:46:45;;;;;;;6.78;3.80;;;;;;;;;;5109060;28;20043;-68
2021/06/05 04:51:21;;;;;;;7.07;3.58;;;;;;;;;;5126169;27;20377;-68
2021/06/05 04:53:48;;;;;;;7.47;4.45;;;;;;;;;;5110708;28;20403;-68
2021/06/05 04:56:14;;;;;;;7.00;4.30;;;;;;;;;;5108733;28;20027;-68
2021/06/05 04:58:41;;;;;;;7.43;4.20;;;;;;;;;;5110387;28;20446;-68
2021/06/05 05:01:07;;;;;;;6.85;3.83;;;;;;;;;;5110356;28;20103;-68
2021/06/05 05:03:33;;;;;;;8.73;4.22;;;;;;;;;;5109889;28;20020;-68
2021/06/05 05:06:01;;;;;;;5.85;3.30;;;;;;;;;;5110215;28;20110;-68
2021/06/05 05:10:12;;;;;;;5.72;3.22;;;;;;;;;;5126389;27;20372;-68
2021/06/05 05:12:38;;;;;;;4.25;2.60;;;;;;;;;;5109384;28;20059;-68
2021/06/05 05:15:31;;;;;;;5.38;3.15;;;;;;;;;;5126421;27;20373;-68
2021/06/05 05:19:22;;;;;;;7.05;3.20;;;;;;;;;;5133215;27;20138;-68
2021/06/05 05:21:48;;;;;;;4.90;2.75;;;;;;;;;;5131013;28;20450;-68
2021/06/05 05:24:14;;;;;;;6.60;3.38;;;;;;;;;;5112124;28;20031;-68
2021/06/05 05:26:40;;;;;;;6.80;3.65;;;;;;;;;;5130958;28;20064;-68
2021/06/05 05:29:58;;;;;;;5.50;3.00;;;;;;;;;;5126446;27;20413;-68
2021/06/05 05:32:24;;;;;;;5.25;2.53;;;;;;;;;;5110240;28;20027;-68
2021/06/05 05:35:20;;;;;;;9.13;4.28;;;;;;;;;;5126410;27;20376;-68
2021/06/05 05:37:46;;;;;;;8.15;4.32;;;;;;;;;;5108747;28;20034;-68
2021/06/05 05:40:14;;;;;;;16.88;4.50;;;;;;;;;;5110379;28;20020;-68
2021/06/05 05:44:27;;;;;;;8.10;3.97;;;;;;;;;;5125969;27;20384;-68
2021/06/05 05:47:56;;;;;;;7.82;4.43;;;;;;;;;;5126327;27;20388;-68
2021/06/05 05:50:22;;;;;;;5.70;3.75;;;;;;;;;;5109470;28;20024;-69
2021/06/05 05:52:49;;;;;;;5.45;3.05;;;;;;;;;;5108832;28;20434;-69
2021/06/05 05:55:15;;;;;;;7.00;3.40;;;;;;;;;;5110413;28;20039;-69
2021/06/05 06:01:20;;;;;;;6.80;3.85;;;;;;;;;;5126346;27;20373;-68
2021/06/05 06:03:47;;;;;;;7.03;3.88;;;;;;;;;;5109312;28;20031;-68
2021/06/05 06:06:13;;;;;;;5.72;3.00;;;;;;;;;;5110028;28;20503;-68
2021/06/05 06:09:34;;;;;;;6.10;3.53;;;;;;;;;;5133198;27;20835;-68
2021/06/05 06:12:01;;;;;;;4.70;2.85;;;;;;;;;;5131192;28;20443;-68
2021/06/05 06:16:20;;;;;;;8.93;3.83;;;;;;;;;;5126252;27;20373;-68
2021/06/05 06:19:27;;;;;;;9.55;3.40;;;;;;;;;;5105802;27;20378;-68
2021/06/05 06:23:35;;;;;;;5.95;3.63;;;;;;;;;;5126180;27;20376;-68
2021/06/05 06:26:02;;;;;;;7.28;3.65;;;;;;;;;;5110891;28;20176;-68
2021/06/05 06:28:30;;;;;;;6.50;3.75;;;;;;;;;;5108661;28;20085;-69
2021/06/05 06:30:56;;;;;;;8.20;3.78;;;;;;;;;;5109100;28;20023;-68
2021/06/05 06:33:23;;;;;;;7.20;3.20;;;;;;;;;;5109253;28;20052;-68
2021/06/05 06:35:49;;;;;;;4.70;2.78;;;;;;;;;;5108560;28;20365;-68
2021/06/05 06:38:18;;;;;;;4.57;3.08;;;;;;;;;;5110187;28;20020;-68
2021/06/05 06:42:27;;;;;;;5.22;3.05;;;;;;;;;;5125912;27;20384;-69
2021/06/05 06:44:53;;;;;;;8.05;3.47;;;;;;;;;;5110441;28;20103;-69
2021/06/05 06:47:20;;;;;;;6.05;2.90;;;;;;;;;;5110361;28;20012;-69
2021/06/05 06:52:48;;;;;;;4.10;2.70;;;;;;;;;;5126657;27;20380;-68
2021/06/05 06:57:12;;;;;;;8.32;2.90;;;;;;;;;;5129665;27;20521;-68
2021/06/05 07:01:17;;;;;;;5.10;2.67;;;;;;;;;;5126238;27;20389;-68
2021/06/05 07:13:19;;;;;;;4.20;2.70;;;;;;;;;;5126475;27;20387;-68
2021/06/05 07:15:45;;;;;;;7.63;3.10;;;;;;;;;;5108741;28;20368;-69
2021/06/05 07:18:13;;;;;;;5.47;2.80;;;;;;;;;;5110419;28;20340;-68
2021/06/05 07:20:40;;;;;;;3.75;2.42;;;;;;;;;;5110419;28;20063;-69
2021/06/05 07:23:07;;;;;;;7.70;3.30;;;;;;;;;;5109739;28;20092;-68
2021/06/05 07:26:54;;;;;;;5.25;2.90;;;;;;;;;;5126328;27;20377;-69
2021/06/05 07:29:21;;;;;;;6.50;3.72;;;;;;;;;;5110448;28;20055;-69
2021/06/05 07:32:55;;;;;;;6.03;2.60;;;;;;;;;;5126519;27;20379;-68
2021/06/05 07:35:23;;;;;;;5.70;2.65;;;;;;;;;;5109173;28;20024;-69
2021/06/05 07:38:40;;;;;;;7.68;3.25;;;;;;;;;;5126056;27;20369;-69
2021/06/05 07:41:06;;;;;;;3.17;2.10;;;;;;;;;;5110348;28;20026;-68
2021/06/05 07:43:33;;;;;;;6.32;3.00;;;;;;;;;;5110076;28;20023;-68
2021/06/05 07:46:00;;;;;;;8.73;3.13;;;;;;;;;;5110083;28;20427;-69
2021/06/05 07:50:59;;;;;;;4.78;2.60;;;;;;;;;;5125929;27;20381;-69
2021/06/05 07:58:21;;;;;;;14.43;3.78;;;;;;;;;;5125784;27;20388;-69
2021/06/05 08:00:48;;;;;;;4.85;2.92;;;;;;;;;;5110448;28;20282;-69
2021/06/05 08:04:23;;;;;;;7.80;2.55;;;;;;;;;;5092245;28;20112;-68
2021/06/05 08:07:53;;;;;;;4.78;2.17;;;;;;;;;;5126055;27;20385;-70
2021/06/05 08:10:21;;;;;;;5.20;3.03;;;;;;;;;;5110653;28;20102;-68
2021/06/05 08:12:47;;;;;;;3.97;2.22;;;;;;;;;;5108835;28;20020;-69
2021/06/05 08:15:15;;;;;;;3.53;2.33;;;;;;;;;;5110487;28;20213;-69
2021/06/05 08:17:42;;;;;;;5.63;2.40;;;;;;;;;;5110248;28;20039;-69
2021/06/05 08:20:10;;;;;;;6.22;3.20;;;;;;;;;;5108578;28;20103;-71
2021/06/05 08:22:37;;;;;;;6.13;3.15;;;;;;;;;;5110221;28;20291;-68
2021/06/05 08:25:04;;;;;;;4.28;2.10;;;;;;;;;;5108816;28;20023;-69
2021/06/05 08:27:31;;;;;;;3.00;1.90;;;;;;;;;;5109584;28;20032;-70
2021/06/05 08:29:57;;;;;;;4.70;2.38;;;;;;;;;;5110274;28;20024;-69
2021/06/05 08:32:55;;;;;;;6.50;3.42;;;;;;;;;;5126247;27;20373;-69
2021/06/05 08:38:50;;;;;;;6.55;2.67;;;;;;;;;;5126210;27;20742;-70
2021/06/05 08:41:22;;;;;;;6.88;2.55;;;;;;;;;;5109984;28;20027;-69
2021/06/05 08:43:48;;;;;;;4.75;2.50;;;;;;;;;;5110255;28;20103;-69
2021/06/05 08:46:17;;;;;;;4.00;2.63;;;;;;;;;;5110397;28;20026;-69
2021/06/05 08:48:43;;;;;;;6.53;2.67;;;;;;;;;;5110117;28;20024;-70
2021/06/05 08:51:14;;;;;;;4.47;2.30;;;;;;;;;;5110331;28;20020;-69
2021/06/05 08:53:40;;;;;;;6.35;2.60;;;;;;;;;;5109018;28;20031;-70
2021/06/05 08:56:11;;;;;;;4.80;2.95;;;;;;;;;;5109767;28;20069;-70
2021/06/05 08:58:38;;;;;;;8.18;2.80;;;;;;;;;;5110047;28;20027;-70
2021/06/05 09:03:04;;;;;;;4.65;2.70;;;;;;;;;;5125908;27;20380;-69
2021/06/05 09:06:07;;;;;;;4.70;2.15;;;;;;;;;;5129559;27;20121;-69
2021/06/05 09:08:33;;;;;;;3.03;1.70;;;;;;;;;;5130747;28;20030;-69
2021/06/05 09:11:00;;;;;;;4.53;2.25;;;;;;;;;;5131232;28;20367;-69
2021/06/05 09:13:27;;;;;;;4.55;2.35;;;;;;;;;;5130822;28;20546;-69
2021/06/05 09:16:47;;;;;;;5.93;2.95;;;;;;;;;;5125659;27;20386;-71
2021/06/05 09:19:31;;;;;;;12.82;2.83;;;;;;;;;;5110399;28;20048;-69
2021/06/05 09:22:12;;;;;;;3.55;2.10;;;;;;;;;;5108854;28;20399;-68
2021/06/05 09:26:46;;;;;;;5.30;2.10;;;;;;;;;;5126653;27;20388;-69
2021/06/05 09:29:19;;;;;;;3.25;2.25;;;;;;;;;;5109368;28;20032;-69
2021/06/05 09:31:51;;;;;;;3.38;2.20;;;;;;;;;;5109901;28;20508;-69
2021/06/05 09:34:18;;;;;;;4.23;1.90;;;;;;;;;;5110217;28;20024;-69
2021/06/05 09:36:44;;;;;;;3.08;2.08;;;;;;;;;;5109812;28;20102;-69
2021/06/05 09:39:13;;;;;;;3.03;1.77;;;;;;;;;;5110437;28;20020;-69
2021/06/05 09:41:49;;;;;;;5.78;2.25;;;;;;;;;;5110039;28;20020;-69
2021/06/05 09:44:22;;;;;;;4.07;2.05;;;;;;;;;;5109849;28;20095;-69
2021/06/05 09:46:54;;;;;;;3.33;2.15;;;;;;;;;;5110136;28;20499;-69
2021/06/05 09:49:45;;;;;;;4.22;2.17;;;;;;;;;;5110131;28;20028;-69
2021/06/05 09:52:13;;;;;;;3.72;1.92;;;;;;;;;;5109407;28;20152;-69
2021/06/05 09:54:39;;;;;;;3.28;2.05;;;;;;;;;;5109870;28;20027;-69
2021/06/05 09:57:20;;;;;;;4.00;2.13;;;;;;;;;;5109724;28;20058;-69
2021/06/05 10:00:06;;;;;;;3.75;2.40;;;;;;;;;;5109194;28;20533;-70
2021/06/05 10:02:34;;;;;;;3.53;2.20;;;;;;;;;;5109403;28;20027;-69
2021/06/05 10:05:20;;;;;;;4.55;2.13;;;;;;;;;;5109239;28;20088;-69
2021/06/05 10:07:47;;;;;;;2.88;2.10;;;;;;;;;;5109671;28;20032;-69
2021/06/05 10:10:34;;;;;;;4.25;2.15;;;;;;;;;;5109660;28;20028;-69
2021/06/05 10:13:02;;;;;;;3.97;2.30;;;;;;;;;;5109489;28;20020;-69
2021/06/05 10:15:32;;;;;;;4.40;2.30;;;;;;;;;;5108203;28;20016;-69
2021/06/05 10:18:19;;;;;;;3.80;2.20;;;;;;;;;;5109499;28;20027;-69
2021/06/05 10:20:47;;;;;;;4.45;2.47;;;;;;;;;;5108647;28;20096;-69
2021/06/05 10:23:24;;;;;;;5.45;2.65;;;;;;;;;;5109315;28;20031;-69
2021/06/05 10:25:52;;;;;;;3.50;2.50;;;;;;;;;;5108745;28;20079;-69
2021/06/05 10:28:20;;;;;;;3.17;2.00;;;;;;;;;;5109403;28;20016;-69
2021/06/05 10:30:49;;;;;;;4.90;2.15;;;;;;;;;;5109492;28;20396;-69
2021/06/05 10:33:36;;;;;;;3.63;2.05;;;;;;;;;;5108945;28;20472;-69
2021/06/05 10:36:04;;;;;;;4.30;2.05;;;;;;;;;;5107389;28;20073;-69
2021/06/05 10:38:42;;;;;;;4.65;2.45;;;;;;;;;;5094072;28;20162;-69
2021/06/05 10:41:11;;;;;;;5.65;2.60;;;;;;;;;;5095093;28;20051;-69
2021/06/05 10:43:38;;;;;;;3.35;2.05;;;;;;;;;;5095183;28;20491;-69
2021/06/05 10:46:23;;;;;;;4.15;2.00;;;;;;;;;;5095219;28;20040;-68
2021/06/05 10:48:50;;;;;;;5.50;2.40;;;;;;;;;;5093831;28;20028;-69
2021/06/05 10:51:17;;;;;;;3.60;2.22;;;;;;;;;;5095432;28;20553;-69
2021/06/05 10:53:58;;;;;;;4.60;2.70;;;;;;;;;;5095194;28;20503;-69
2021/06/05 10:56:51;;;;;;;3.88;1.80;;;;;;;;;;5093796;28;20031;-69
2021/06/05 10:59:35;;;;;;;3.70;1.83;;;;;;;;;;5094268;28;20024;-69
2021/06/05 11:02:02;;;;;;;2.60;1.92;;;;;;;;;;5093458;28;20031;-69
2021/06/05 11:04:34;;;;;;;3.78;2.50;;;;;;;;;;5094816;28;20020;-69
2021/06/05 11:07:03;;;;;;;4.80;2.92;;;;;;;;;;5094919;28;20028;-69
2021/06/05 11:09:30;;;;;;;8.25;3.88;;;;;;;;;;5094677;28;20024;-69
2021/06/05 11:12:19;;;;;;;3.88;2.20;;;;;;;;;;5095095;28;20106;-69
2021/06/05 11:14:46;;;;;;;4.78;2.50;;;;;;;;;;5092987;28;20084;-69
2021/06/05 11:17:31;;;;;;;4.18;1.95;;;;;;;;;;5094391;28;20035;-68
2021/06/05 11:20:07;;;;;;;4.50;2.22;;;;;;;;;;5094693;28;20020;-69
2021/06/05 11:23:03;;;;;;;3.33;1.80;;;;;;;;;;5093106;28;20057;-69
2021/06/05 11:25:38;;;;;;;3.47;2.08;;;;;;;;;;5093585;28;20043;-70
2021/06/05 11:28:23;;;;;;;3.20;1.92;;;;;;;;;;5094686;28;20103;-69
2021/06/05 11:30:49;;;;;;;3.35;2.25;;;;;;;;;;5092836;28;20024;-69
2021/06/05 11:33:54;;;;;;;3.22;2.35;;;;;;;;;;5093122;28;20107;-69
2021/06/05 11:36:38;;;;;;;4.25;2.03;;;;;;;;;;5091484;28;20044;-69
2021/06/05 11:39:10;;;;;;;6.57;2.10;;;;;;;;;;5091987;28;20046;-69
2021/06/05 11:41:48;;;;;;;4.30;2.28;;;;;;;;;;5093248;28;20053;-69
2021/06/05 11:44:20;;;;;;;6.50;2.50;;;;;;;;;;5094062;28;20042;-69
2021/06/05 11:46:47;;;;;;;4.85;2.60;;;;;;;;;;5093009;28;20448;-69
2021/06/05 11:49:32;;;;;;;3.47;1.95;;;;;;;;;;5093086;28;20473;-69
2021/06/05 11:52:18;;;;;;;4.57;2.33;;;;;;;;;;5093754;28;20407;-69
2021/06/05 11:54:44;;;;;;;4.78;2.42;;;;;;;;;;5093813;28;20024;-69
2021/06/05 11:57:15;;;;;;;3.88;2.03;;;;;;;;;;5093827;28;20100;-69
2021/06/05 11:59:45;;;;;;;3.38;1.90;;;;;;;;;;5094017;28;20020;-69
2021/06/05 12:02:35;;;;;;;3.83;2.20;;;;;;;;;;5094105;28;20020;-69
2021/06/05 12:05:05;;;;;;;3.65;2.13;;;;;;;;;;5093552;28;20028;-69
2021/06/05 12:07:32;;;;;;;2.55;1.77;;;;;;;;;;5093835;28;20425;-68
2021/06/05 12:10:00;;;;;;;3.38;2.10;;;;;;;;;;5092418;28;20112;-69
2021/06/05 12:12:46;;;;;;;4.53;1.95;;;;;;;;;;5093331;28;20024;-69
2021/06/05 12:15:15;;;;;;;6.38;3.05;;;;;;;;;;5094762;28;20029;-70
2021/06/05 12:17:42;;;;;;;3.35;2.20;;;;;;;;;;5093736;28;20031;-70
2021/06/05 12:20:21;;;;;;;3.85;2.22;;;;;;;;;;5091918;28;20020;-70
2021/06/05 12:22:49;;;;;;;3.13;1.73;;;;;;;;;;5093643;28;20387;-70
2021/06/05 12:25:35;;;;;;;4.13;1.83;;;;;;;;;;5093158;28;20101;-70
2021/06/05 12:28:12;;;;;;;6.00;2.50;;;;;;;;;;5093477;28;20066;-70
2021/06/05 12:30:42;;;;;;;2.58;1.73;;;;;;;;;;5093726;28;20051;-70
2021/06/05 12:33:09;;;;;;;3.53;1.80;;;;;;;;;;5093103;28;20102;-70
2021/06/05 12:35:43;;;;;;;4.35;2.10;;;;;;;;;;5093273;28;20589;-70
2021/06/05 12:38:11;;;;;;;13.57;1.92;;;;;;;;;;5093259;28;20406;-70
2021/06/05 12:40:40;;;;;;;2.63;1.77;;;;;;;;;;5092997;28;20048;-70
2021/06/05 12:43:08;;;;;;;4.70;2.13;;;;;;;;;;5093349;28;20024;-70
2021/06/05 12:45:35;;;;;;;4.82;2.00;;;;;;;;;;5093083;28;20070;-69
2021/06/05 12:48:02;;;;;;;4.57;2.03;;;;;;;;;;5092740;28;20020;-70
2021/06/05 12:50:30;;;;;;;2.67;1.50;;;;;;;;;;5091869;28;20020;-70
2021/06/05 12:52:57;;;;;;;3.80;1.83;;;;;;;;;;5092970;28;20032;-70
2021/06/05 12:55:35;;;;;;;3.53;2.00;;;;;;;;;;5092430;28;20519;-70
2021/06/05 12:58:04;;;;;;;3.05;1.80;;;;;;;;;;5093284;28;20081;-70
2021/06/05 13:00:30;;;;;;;2.63;1.60;;;;;;;;;;5092615;28;20028;-70
2021/06/05 13:03:08;;;;;;;6.82;2.15;;;;;;;;;;5092710;28;20039;-71
2021/06/05 13:05:38;;;;;;;2.50;1.70;;;;;;;;;;5092876;28;20063;-71
2021/06/05 13:08:10;;;;;;;2.78;1.77;;;;;;;;;;5092581;28;20045;-68
2021/06/05 13:10:42;;;;;;;3.17;1.75;;;;;;;;;;5091410;28;20115;-70
2021/06/05 13:13:22;;;;;;;2.47;1.75;;;;;;;;;;5092791;28;20124;-70
2021/06/05 13:15:52;;;;;;;5.20;2.28;;;;;;;;;;5091133;28;20384;-70
2021/06/05 13:18:30;;;;;;;3.45;1.83;;;;;;;;;;5092709;28;20350;-70
2021/06/05 13:20:57;;;;;;;2.10;1.55;;;;;;;;;;5092787;28;20048;-70
2021/06/05 13:23:26;;;;;;;2.58;1.50;;;;;;;;;;5092404;28;20016;-68
2021/06/05 13:25:54;;;;;;;3.13;1.73;;;;;;;;;;5092331;28;20048;-70
2021/06/05 13:28:31;;;;;;;2.67;1.50;;;;;;;;;;5092505;28;20025;-70
2021/06/05 13:30:58;;;;;;;2.17;1.20;;;;;;;;;;5090903;28;20089;-68
2021/06/05 13:33:25;;;;;;;2.85;1.35;;;;;;;;;;5092457;28;20095;-68
2021/06/05 13:35:52;;;;;;;3.20;1.90;;;;;;;;;;5092087;28;20047;-71
2021/06/05 13:38:20;;;;;;;3.60;1.85;;;;;;;;;;5092497;28;20472;-70
2021/06/05 13:40:46;;;;;;;2.88;1.58;;;;;;;;;;5092507;28;20036;-68
2021/06/05 13:43:13;;;;;;;2.45;1.65;;;;;;;;;;5092197;28;20047;-68
2021/06/05 13:45:39;;;;;;;2.85;1.77;;;;;;;;;;5092344;28;20105;-69
2021/06/05 13:48:06;;;;;;;3.03;1.73;;;;;;;;;;5092287;28;20059;-68
2021/06/05 13:50:33;;;;;;;3.55;1.67;;;;;;;;;;5091861;28;20020;-69
2021/06/05 13:53:06;;;;;;;2.95;1.70;;;;;;;;;;5091049;28;20028;-69
2021/06/05 13:55:35;;;;;;;3.15;1.70;;;;;;;;;;5092301;28;20032;-69
2021/06/05 13:58:01;;;;;;;3.42;2.22;;;;;;;;;;5091931;28;20021;-68
2021/06/05 14:00:28;;;;;;;2.92;1.60;;;;;;;;;;5092290;28;20028;-71
2021/06/05 14:02:55;;;;;;;3.25;1.88;;;;;;;;;;5092309;28;20031;-71
2021/06/05 14:05:22;;;;;;;3.05;1.63;;;;;;;;;;5091810;28;20610;-69
2021/06/05 14:07:48;;;;;;;2.80;1.45;;;;;;;;;;5090879;28;20035;-69
2021/06/05 14:10:15;;;;;;;4.45;1.88;;;;;;;;;;5092157;28;20511;-69
2021/06/05 14:12:42;;;;;;;2.90;1.77;;;;;;;;;;5092841;28;20033;-71
2021/06/05 14:15:14;;;;;;;4.03;1.70;;;;;;;;;;5096225;28;20563;-69
2021/06/05 14:17:40;;;;;;;3.35;1.80;;;;;;;;;;5095992;28;20052;-69
2021/06/05 14:20:07;;;;;;;3.55;1.83;;;;;;;;;;5095593;28;20051;-68
2021/06/05 14:22:33;;;;;;;2.70;1.60;;;;;;;;;;5096014;28;20035;-69
2021/06/05 14:24:59;;;;;;;2.88;1.60;;;;;;;;;;5093650;28;20071;-69
2021/06/05 14:27:25;;;;;;;3.35;1.77;;;;;;;;;;5094426;28;20024;-69
2021/06/05 14:29:51;;;;;;;3.10;1.60;;;;;;;;;;5095698;28;20384;-69
2021/06/05 14:32:18;;;;;;;3.20;1.40;;;;;;;;;;5095315;28;20135;-69
2021/06/05 14:34:44;;;;;;;2.92;1.40;;;;;;;;;;5095649;28;20024;-69
2021/06/05 14:37:10;;;;;;;2.90;1.58;;;;;;;;;;5094332;28;20027;-69
2021/06/05 14:39:36;;;;;;;2.75;1.67;;;;;;;;;;5093878;28;20097;-69
2021/06/05 14:42:05;;;;;;;4.72;1.77;;;;;;;;;;5095651;28;20024;-69
2021/06/05 14:44:31;;;;;;;4.75;1.67;;;;;;;;;;5095589;28;20030;-69
2021/06/05 14:46:58;;;;;;;4.55;2.15;;;;;;;;;;5094874;28;20476;-68
2021/06/05 14:49:25;;;;;;;2.92;1.60;;;;;;;;;;5095405;28;20422;-70
2021/06/05 14:51:51;;;;;;;5.00;1.80;;;;;;;;;;5093930;28;20030;-69
2021/06/05 14:54:18;;;;;;;2.97;1.95;;;;;;;;;;5094803;28;20030;-69
2021/06/05 14:56:45;;;;;;;4.35;1.70;;;;;;;;;;5095150;28;20020;-69
2021/06/05 14:59:12;;;;;;;2.83;1.35;;;;;;;;;;5093851;28;20324;-69
2021/06/05 15:01:38;;;;;;;2.40;1.73;;;;;;;;;;5094971;28;20155;-70
2021/06/05 15:04:06;;;;;;;3.60;1.63;;;;;;;;;;5093882;28;20073;-70
2021/06/05 15:06:33;;;;;;;4.13;1.75;;;;;;;;;;5094853;28;20040;-70
2021/06/05 15:08:59;;;;;;;1.42;1.23;;;;;;;;;;5094547;28;20095;-70
2021/06/05 15:11:26;;;;;;;3.92;1.80;;;;;;;;;;5094871;28;20024;-69
2021/06/05 15:13:52;;;;;;;3.78;1.63;;;;;;;;;;5094831;28;20020;-70
2021/06/05 15:16:18;;;;;;;2.38;1.40;;;;;;;;;;5092917;28;20031;-70
2021/06/05 15:18:45;;;;;;;2.03;1.27;;;;;;;;;;5093313;28;20031;-70
2021/06/05 15:21:12;;;;;;;4.68;2.00;;;;;;;;;;5094428;28;20079;-70
2021/06/05 15:23:40;;;;;;;3.00;1.70;;;;;;;;;;5094827;28;20049;-69
2021/06/05 15:26:06;;;;;;;2.70;1.67;;;;;;;;;;5094444;28;20052;-69
2021/06/05 15:28:33;;;;;;;4.60;1.50;;;;;;;;;;5094124;28;20130;-69
2021/06/05 15:30:59;;;;;;;3.17;1.85;;;;;;;;;;5094493;28;20028;-70
2021/06/05 15:33:27;;;;;;;2.67;1.33;;;;;;;;;;5092993;28;20029;-70
2021/06/05 15:35:53;;;;;;;4.07;1.30;;;;;;;;;;5093997;28;20107;-70
2021/06/05 15:38:21;;;;;;;5.80;1.95;;;;;;;;;;5094344;28;20091;-70
2021/06/05 15:40:48;;;;;;;4.63;1.80;;;;;;;;;;5093172;28;20389;-70
2021/06/05 15:43:16;;;;;;;3.70;1.88;;;;;;;;;;5092885;28;20024;-70
2021/06/05 15:45:45;;;;;;;2.33;1.45;;;;;;;;;;5094268;28;20036;-70
2021/06/05 15:48:14;;;;;;;1.98;1.48;;;;;;;;;;5092808;28;20032;-70
2021/06/05 15:50:41;;;;;;;2.70;1.58;;;;;;;;;;5093510;28;20056;-70
2021/06/05 15:53:08;;;;;;;2.22;1.50;;;;;;;;;;5094106;28;20016;-70
2021/06/05 15:55:35;;;;;;;2.58;1.45;;;;;;;;;;5094006;28;20079;-70
2021/06/05 15:58:02;;;;;;;14.23;2.13;;;;;;;;;;5092293;28;20381;-70
2021/06/05 16:00:29;;;;;;;2.83;1.60;;;;;;;;;;5094255;28;20028;-70
2021/06/05 16:02:56;;;;;;;2.83;1.65;;;;;;;;;;5094013;28;20040;-69
2021/06/05 16:05:24;;;;;;;2.97;1.70;;;;;;;;;;5093051;28;20365;-70
2021/06/05 16:07:51;;;;;;;2.35;1.67;;;;;;;;;;5092770;28;20036;-70
2021/06/05 16:10:17;;;;;;;3.10;1.98;;;;;;;;;;5093761;28;20020;-70
2021/06/05 16:12:44;;;;;;;5.72;2.28;;;;;;;;;;5093169;28;20536;-70
2021/06/05 16:15:14;;;;;;;5.05;2.10;;;;;;;;;;5092159;28;20376;-69
2021/06/05 16:17:41;;;;;;;2.50;1.70;;;;;;;;;;5093122;28;20031;-69
2021/06/05 16:20:07;;;;;;;2.40;1.63;;;;;;;;;;5092379;28;20023;-69
2021/06/05 16:22:33;;;;;;;3.55;2.30;;;;;;;;;;5093705;28;20041;-68
2021/06/05 16:24:59;;;;;;;3.58;1.90;;;;;;;;;;5091601;28;20040;-68
2021/06/05 16:27:26;;;;;;;3.28;2.10;;;;;;;;;;5093492;28;20468;-69
2021/06/05 16:29:52;;;;;;;3.42;2.17;;;;;;;;;;5093280;28;20483;-69
2021/06/05 16:32:18;;;;;;;3.65;2.08;;;;;;;;;;5091480;28;20440;-68
2021/06/05 16:34:44;;;;;;;3.42;1.98;;;;;;;;;;5092905;28;20020;-71
2021/06/05 16:37:10;;;;;;;4.43;2.10;;;;;;;;;;5091740;28;20073;-69
2021/06/05 16:39:36;;;;;;;6.90;2.67;;;;;;;;;;5091623;28;20028;-69
2021/06/05 16:42:03;;;;;;;3.10;2.00;;;;;;;;;;5093438;28;20457;-69
2021/06/05 16:44:29;;;;;;;4.40;1.90;;;;;;;;;;5091920;28;20020;-69
2021/06/05 16:46:55;;;;;;;3.63;2.22;;;;;;;;;;5091426;28;20057;-69
2021/06/05 16:49:21;;;;;;;6.05;3.08;;;;;;;;;;5093114;28;20024;-69
2021/06/05 16:51:48;;;;;;;4.00;2.20;;;;;;;;;;5093086;28;20027;-69
2021/06/05 16:54:14;;;;;;;3.97;2.20;;;;;;;;;;5091194;28;20150;-69
2021/06/05 16:56:41;;;;;;;4.63;2.30;;;;;;;;;;5092871;28;20028;-69
2021/06/05 16:59:07;;;;;;;3.78;2.10;;;;;;;;;;5092796;28;20012;-69
2021/06/05 17:01:35;;;;;;;7.78;4.13;;;;;;;;;;5092714;28;20072;-69